• Join FlightAware (Why Join?)
  • Login
  • US Flag 
05:39PM EDT


 

Airport Tracker/Info


-or-


 

Live Flight TrackerFlight Track Log ✈ N885WT ✈ 18-Jul-2013 ✈ KCRQ - KSJC

Flight Track Log - Related Links

Times and Time Zones

All times are in EDT time to prevent confusion due to time zone crossing. See the N885WT flight status page for this flight to view local times or setup timezone preferences in your user account.

Time Position Orientation Groundspeed Altitude Reporting Facility
EDT Latitude Longitude Course Direction KTS MPH feet Rate Location/Type
08:50PM 33.1333 -117.3000 253° West 165 190 1,800  Level Southern California TRACON
08:51PM 33.1167 -117.3667 253° West 211 243 4,300 2,280 Climbing Southern California TRACON
08:52PM 33.1094 -117.4075 258° West 234 269 5,500 3,060 Climbing Los Angeles Center
08:53PM 33.0956 -117.4975 260° West 269 310 9,200 2,820 Climbing Los Angeles Center
08:54PM 33.0842 -117.5997 262° West 306 352 11,400 2,400 Climbing Los Angeles Center
08:55PM 33.0883 -117.7206 272° West 364 419 14,200 2,940 Climbing Los Angeles Center
08:56PM 33.1769 -117.8361 313° West 391 450 17,500 2,760 Climbing Los Angeles Center
08:57PM 33.2536 -117.9369 312° West 404 465 20,000 2,460 Climbing Los Angeles Center
08:58PM 33.3331 -118.0419 312° West 420 483 22,700 2,400 Climbing Los Angeles Center
08:59PM 33.4147 -118.1500 312° West 433 498 25,000 2,100 Climbing Los Angeles Center
09:00PM 33.5028 -118.2622 313° West 453 521 27,100 1,980 Climbing Los Angeles Center
09:01PM 33.5922 -118.3803 312° West 467 537 29,200 1,920 Climbing Los Angeles Center
09:02PM 33.6900 -118.5036 314° West 496 571 31,100 2,100 Climbing Los Angeles Center
09:03PM 33.7881 -118.6222 315° West 494 568 33,600 2,700 Climbing Los Angeles Center
09:04PM 33.9025 -118.7611 315° West 484 557 36,800 2,760 Climbing Los Angeles Center
09:05PM 33.9975 -118.8744 315° West 480 552 39,400 1,500 Climbing Los Angeles Center
09:06PM 34.0925 -118.9853 316° Northwest 476 548 40,000 240 Climbing Los Angeles Center
09:07PM 34.1908 -119.0989 316° Northwest 487 560 40,000  Level Los Angeles Center
09:08PM 34.2886 -119.2133 316° Northwest 489 563 40,000  Level Los Angeles Center
09:09PM 34.3864 -119.3269 316° Northwest 488 562 40,000  Level Los Angeles Center
09:10PM 34.4850 -119.4414 316° Northwest 490 564 40,000  Level Los Angeles Center
09:11PM 34.6011 -119.5769 316° Northwest 486 559 40,000  Level Los Angeles Center
09:12PM 34.6881 -119.6758 317° Northwest 485 558 40,000  Level Los Angeles Center
09:13PM 34.8056 -119.8142 316° Northwest 489 563 40,000  Level Los Angeles Center
09:14PM 34.9036 -119.9311 316° Northwest 492 566 40,000  Level Los Angeles Center
09:15PM 35.0017 -120.0478 316° Northwest 493 567 40,000  Level Los Angeles Center
09:16PM 35.1006 -120.1628 316° Northwest 498 573 40,000  Level Los Angeles Center
09:17PM 35.1978 -120.2783 316° Northwest 497 572 40,000  Level Los Angeles Center
09:18PM 35.2942 -120.3961 315° West 499 574 40,000  Level Los Angeles Center
09:19PM 35.4203 -120.5283 320° Northwest 513 590 40,000  Level Los Angeles Center
09:20PM 35.5317 -120.6256 325° Northwest 500 575 40,000 -420 Level Los Angeles Center
09:22PM 35.6836 -120.7550 325° Northwest 498 573 39,100 -1,620 Descending Oakland Center
09:23PM 35.7956 -120.8508 325° Northwest 493 567 36,300 -2,760 Descending Oakland Center
09:24PM 35.9111 -120.9483 326° Northwest 499 574 33,500 -2,820 Descending Oakland Center
09:25PM 36.0278 -121.0492 325° Northwest 507 583 30,600 -2,880 Descending Oakland Center
09:26PM 36.1453 -121.1500 325° Northwest 511 588 27,700 -2,760 Descending Oakland Center
09:27PM 36.2575 -121.2475 325° Northwest 491 565 25,000 -2,880 Descending Oakland Center
09:28PM 36.3867 -121.3592 325° Northwest 471 542 21,800 -2,940 Descending Oakland Center
09:29PM 36.4903 -121.4489 325° Northwest 455 524 19,000 -2,760 Descending Oakland Center
09:30PM 36.6067 -121.4875 345° North 432 497 16,200 -2,400 Descending Oakland Center
09:31PM 36.7194 -121.5056 353° North 406 467 14,100 -1,860 Descending Oakland Center
09:32PM 36.8172 -121.5242 351° North 356 410 12,500 -1,740 Descending Oakland Center
09:33PM 36.9086 -121.5664 340° North 324 373 10,600 -1,740 Descending Oakland Center
09:34PM 36.9789 -121.6200 329° Northwest 300 345 9,000 -1,560 Descending Oakland Center
09:35PM 37.0486 -121.6694 330° Northwest 291 335 7,500 -1,620 Descending Oakland Center
09:36PM 37.1333 -121.7167 336° Northwest 280 322 5,600 -1,380 Descending Northern Cal TRACON
09:37PM 37.1842 -121.7536 330° Northwest 272 313 4,700 -1,020 Descending Oakland Center
09:38PM 37.2406 -121.7956 329° Northwest 254 292 3,600 -1,080 Descending Oakland Center
09:39PM 37.2756 -121.8381 316° Northwest 204 235 2,500 -1,080 Descending Oakland Center
09:40PM 37.3053 -121.8700 319° Northwest 167 192 1,400 -1,020 Descending Oakland Center
09:41PM 37.3358 -121.9008 321° Northwest 136 157 500 9,060 Descending Oakland Center
09:42PM 37.3583 -121.9267 318° Northwest 121 139 20,000 19,140 Climbing Oakland Center
09:44PM 37.3500 -121.9167 North  Level FlightAware Approximate